sensor_id;sensor_type;location;lat;lon;timestamp;pressure;altitude;pressure_sealevel;temperature;humidity
1371;BME280;14306;49.942;11.570;2023-09-12T00:02:15;97270.88;;;16.86;100.00
1371;BME280;14306;49.942;11.570;2023-09-12T00:04:43;97265.50;;;16.90;100.00
1371;BME280;14306;49.942;11.570;2023-09-12T00:07:13;97260.53;;;16.80;100.00
1371;BME280;14306;49.942;11.570;2023-09-12T00:09:41;97257.69;;;16.76;100.00
1371;BME280;14306;49.942;11.570;2023-09-12T00:12:09;97255.34;;;16.63;100.00
1371;BME280;14306;49.942;11.570;2023-09-12T00:14:36;97264.09;;;16.68;100.00
1371;BME280;14306;49.942;11.570;2023-09-12T00:17:05;97256.69;;;16.69;100.00
1371;BME280;14306;49.942;11.570;2023-09-12T00:19:34;97259.53;;;16.72;100.00
1371;BME280;14306;49.942;11.570;2023-09-12T00:22:02;97268.72;;;16.80;100.00
1371;BME280;14306;49.942;11.570;2023-09-12T00:24:32;97258.59;;;16.80;100.00
1371;BME280;14306;49.942;11.570;2023-09-12T00:27:00;97263.34;;;16.83;100.00
1371;BME280;14306;49.942;11.570;2023-09-12T00:29:28;97263.25;;;16.80;100.00
1371;BME280;14306;49.942;11.570;2023-09-12T00:31:56;97258.94;;;16.79;100.00
1371;BME280;14306;49.942;11.570;2023-09-12T00:34:24;97253.56;;;16.82;100.00
1371;BME280;14306;49.942;11.570;2023-09-12T00:36:53;97259.53;;;16.72;100.00
1371;BME280;14306;49.942;11.570;2023-09-12T00:39:20;97257.72;;;16.64;100.00
1371;BME280;14306;49.942;11.570;2023-09-12T00:41:50;97252.75;;;16.54;100.00
1371;BME280;14306;49.942;11.570;2023-09-12T00:44:18;97252.06;;;16.57;100.00
1371;BME280;14306;49.942;11.570;2023-09-12T00:46:48;97262.09;;;16.53;100.00
1371;BME280;14306;49.942;11.570;2023-09-12T00:49:17;97257.41;;;16.54;100.00
1371;BME280;14306;49.942;11.570;2023-09-12T00:51:48;97256.75;;;16.45;100.00
1371;BME280;14306;49.942;11.570;2023-09-12T00:54:17;97253.69;;;16.46;100.00
1371;BME280;14306;49.942;11.570;2023-09-12T00:56:53;97254.91;;;16.37;100.00
1371;BME280;14306;49.942;11.570;2023-09-12T00:59:25;97246.41;;;16.26;100.00
1371;BME280;14306;49.942;11.570;2023-09-12T01:01:53;97240.56;;;16.28;100.00
1371;BME280;14306;49.942;11.570;2023-09-12T01:04:21;97236.59;;;16.25;100.00
1371;BME280;14306;49.942;11.570;2023-09-12T01:07:02;97235.38;;;16.11;100.00
1371;BME280;14306;49.942;11.570;2023-09-12T01:09:31;97238.53;;;16.25;100.00
1371;BME280;14306;49.942;11.570;2023-09-12T01:11:59;97234.63;;;16.38;100.00
1371;BME280;14306;49.942;11.570;2023-09-12T01:14:30;97234.06;;;16.44;100.00
1371;BME280;14306;49.942;11.570;2023-09-12T01:16:59;97234.19;;;16.36;100.00
1371;BME280;14306;49.942;11.570;2023-09-12T01:19:28;97242.03;;;16.37;100.00
1371;BME280;14306;49.942;11.570;2023-09-12T01:22:15;97240.00;;;16.34;100.00
1371;BME280;14306;49.942;11.570;2023-09-12T01:25:12;97241.38;;;16.28;100.00
1371;BME280;14306;49.942;11.570;2023-09-12T01:27:46;97234.09;;;16.20;100.00
1371;BME280;14306;49.942;11.570;2023-09-12T01:30:17;97235.13;;;16.04;100.00
1371;BME280;14306;49.942;11.570;2023-09-12T01:32:45;97231.97;;;16.02;100.00
1371;BME280;14306;49.942;11.570;2023-09-12T01:35:14;97233.00;;;15.97;100.00
1371;BME280;14306;49.942;11.570;2023-09-12T01:37:42;97233.31;;;16.08;100.00
1371;BME280;14306;49.942;11.570;2023-09-12T01:40:11;97233.00;;;15.97;100.00
1371;BME280;14306;49.942;11.570;2023-09-12T01:42:43;97227.06;;;15.95;100.00
1371;BME280;14306;49.942;11.570;2023-09-12T01:45:17;97227.19;;;15.87;100.00
1371;BME280;14306;49.942;11.570;2023-09-12T01:47:50;97221.59;;;15.95;100.00
1371;BME280;14306;49.942;11.570;2023-09-12T01:50:19;97228.78;;;15.88;100.00
1371;BME280;14306;49.942;11.570;2023-09-12T01:52:48;97222.28;;;15.80;100.00
1371;BME280;14306;49.942;11.570;2023-09-12T01:55:18;97223.31;;;15.88;100.00
1371;BME280;14306;49.942;11.570;2023-09-12T01:57:47;97225.16;;;15.84;100.00
1371;BME280;14306;49.942;11.570;2023-09-12T02:00:17;97227.75;;;15.92;100.00
1371;BME280;14306;49.942;11.570;2023-09-12T02:02:46;97230.03;;;15.90;100.00
1371;BME280;14306;49.942;11.570;2023-09-12T02:05:17;97215.13;;;15.88;100.00
1371;BME280;14306;49.942;11.570;2023-09-12T02:07:47;97220.25;;;15.77;100.00
1371;BME280;14306;49.942;11.570;2023-09-12T02:10:15;97219.78;;;15.75;100.00
1371;BME280;14306;49.942;11.570;2023-09-12T02:12:43;97218.88;;;15.71;100.00
1371;BME280;14306;49.942;11.570;2023-09-12T02:15:11;97217.72;;;15.60;100.00
1371;BME280;14306;49.942;11.570;2023-09-12T02:17:40;97210.94;;;15.66;100.00
1371;BME280;14306;49.942;11.570;2023-09-12T02:20:09;97230.94;;;15.58;100.00
1371;BME280;14306;49.942;11.570;2023-09-12T02:22:38;97214.22;;;15.60;100.00
1371;BME280;14306;49.942;11.570;2023-09-12T02:25:06;97216.16;;;15.59;100.00
1371;BME280;14306;49.942;11.570;2023-09-12T02:27:35;97215.25;;;15.55;100.00
1371;BME280;14306;49.942;11.570;2023-09-12T02:30:05;97209.09;;;15.58;100.00
1371;BME280;14306;49.942;11.570;2023-09-12T02:32:33;97214.09;;;15.56;100.00
1371;BME280;14306;49.942;11.570;2023-09-12T02:35:03;97214.31;;;15.51;100.00
1371;BME280;14306;49.942;11.570;2023-09-12T02:37:31;97221.50;;;15.56;100.00
1371;BME280;14306;49.942;11.570;2023-09-12T02:39:59;97212.94;;;15.45;100.00
1371;BME280;14306;49.942;11.570;2023-09-12T02:42:27;97215.66;;;15.45;100.00
1371;BME280;14306;49.942;11.570;2023-09-12T02:44:55;97220.97;;;15.29;100.00
1371;BME280;14306;49.942;11.570;2023-09-12T02:47:23;97210.09;;;15.41;100.00
1371;BME280;14306;49.942;11.570;2023-09-12T02:49:51;97211.69;;;15.42;100.00
1371;BME280;14306;49.942;11.570;2023-09-12T02:52:21;97219.53;;;15.44;100.00
1371;BME280;14306;49.942;11.570;2023-09-12T02:54:48;97209.69;;;15.52;100.00
1371;BME280;14306;49.942;11.570;2023-09-12T02:57:16;97210.34;;;15.48;100.00
1371;BME280;14306;49.942;11.570;2023-09-12T02:59:44;97209.19;;;15.49;100.00
1371;BME280;14306;49.942;11.570;2023-09-12T03:02:12;97207.47;;;15.45;100.00
1371;BME280;14306;49.942;11.570;2023-09-12T03:04:41;97199.41;;;15.36;100.00
1371;BME280;14306;49.942;11.570;2023-09-12T03:07:09;97205.22;;;15.35;100.00
1371;BME280;14306;49.942;11.570;2023-09-12T03:09:38;97215.63;;;15.33;100.00
1371;BME280;14306;49.942;11.570;2023-09-12T03:12:06;97211.97;;;15.29;100.00
1371;BME280;14306;49.942;11.570;2023-09-12T03:14:34;97210.84;;;15.30;100.00
1371;BME280;14306;49.942;11.570;2023-09-12T03:17:03;97208.59;;;15.32;100.00
1371;BME280;14306;49.942;11.570;2023-09-12T03:19:32;97205.75;;;15.28;100.00
1371;BME280;14306;49.942;11.570;2023-09-12T03:22:00;97207.34;;;15.29;100.00
1371;BME280;14306;49.942;11.570;2023-09-12T03:24:29;97210.25;;;15.12;100.00
1371;BME280;14306;49.942;11.570;2023-09-12T03:26:59;97203.88;;;15.08;100.00
1371;BME280;14306;49.942;11.570;2023-09-12T03:29:27;97198.06;;;15.10;100.00
1371;BME280;14306;49.942;11.570;2023-09-12T03:31:55;97200.03;;;15.21;100.00
1371;BME280;14306;49.942;11.570;2023-09-12T03:34:23;97206.47;;;15.49;100.00
1371;BME280;14306;49.942;11.570;2023-09-12T03:36:51;97215.13;;;15.52;100.00
1371;BME280;14306;49.942;11.570;2023-09-12T03:39:19;97216.72;;;15.40;100.00
1371;BME280;14306;49.942;11.570;2023-09-12T03:41:47;97203.88;;;15.20;100.00
1371;BME280;14306;49.942;11.570;2023-09-12T03:44:16;97196.81;;;14.95;100.00
1371;BME280;14306;49.942;11.570;2023-09-12T03:46:44;97206.47;;;15.05;100.00
1371;BME280;14306;49.942;11.570;2023-09-12T03:49:12;97213.53;;;15.06;100.00
1371;BME280;14306;49.942;11.570;2023-09-12T03:51:40;97203.34;;;14.82;100.00
1371;BME280;14306;49.942;11.570;2023-09-12T03:54:08;97198.69;;;14.83;100.00
1371;BME280;14306;49.942;11.570;2023-09-12T03:56:36;97188.69;;;14.87;100.00
1371;BME280;14306;49.942;11.570;2023-09-12T03:59:04;97185.75;;;14.92;100.00
1371;BME280;14306;49.942;11.570;2023-09-12T04:01:34;97190.03;;;15.25;100.00
1371;BME280;14306;49.942;11.570;2023-09-12T04:04:03;97199.53;;;15.40;100.00
1371;BME280;14306;49.942;11.570;2023-09-12T04:06:31;97202.78;;;15.33;100.00
1371;BME280;14306;49.942;11.570;2023-09-12T04:09:00;97195.94;;;15.15;100.00
1371;BME280;14306;49.942;11.570;2023-09-12T04:11:27;97199.56;;;15.19;100.00
1371;BME280;14306;49.942;11.570;2023-09-12T04:14:13;97203.66;;;15.13;100.00
1371;BME280;14306;49.942;11.570;2023-09-12T04:16:43;97212.28;;;15.03;100.00
1371;BME280;14306;49.942;11.570;2023-09-12T04:19:11;97196.91;;;14.99;100.00
1371;BME280;14306;49.942;11.570;2023-09-12T04:21:39;97195.00;;;15.11;100.00
1371;BME280;14306;49.942;11.570;2023-09-12T04:24:07;97200.13;;;15.01;100.00
1371;BME280;14306;49.942;11.570;2023-09-12T04:26:36;97192.94;;;14.96;100.00
1371;BME280;14306;49.942;11.570;2023-09-12T04:29:04;97197.94;;;14.94;100.00
1371;BME280;14306;49.942;11.570;2023-09-12T04:31:32;97194.19;;;14.99;100.00
1371;BME280;14306;49.942;11.570;2023-09-12T04:34:01;97192.72;;;15.01;100.00
1371;BME280;14306;49.942;11.570;2023-09-12T04:36:29;97193.19;;;15.03;100.00
1371;BME280;14306;49.942;11.570;2023-09-12T04:38:58;97195.00;;;14.99;100.00
1371;BME280;14306;49.942;11.570;2023-09-12T04:41:26;97197.72;;;14.99;100.00
1371;BME280;14306;49.942;11.570;2023-09-12T04:43:54;97200.78;;;14.98;100.00
1371;BME280;14306;49.942;11.570;2023-09-12T04:46:22;97200.78;;;14.98;100.00
1371;BME280;14306;49.942;11.570;2023-09-12T04:48:50;97202.16;;;15.04;100.00
1371;BME280;14306;49.942;11.570;2023-09-12T04:51:20;97212.03;;;15.41;100.00
1371;BME280;14306;49.942;11.570;2023-09-12T04:53:48;97211.94;;;15.62;100.00
1371;BME280;14306;49.942;11.570;2023-09-12T04:56:18;97214.91;;;15.57;100.00
1371;BME280;14306;49.942;11.570;2023-09-12T04:58:46;97223.53;;;15.58;100.00
1371;BME280;14306;49.942;11.570;2023-09-12T05:01:15;97217.72;;;15.60;100.00
1371;BME280;14306;49.942;11.570;2023-09-12T05:03:43;97227.06;;;15.71;100.00
1371;BME280;14306;49.942;11.570;2023-09-12T05:06:11;97229.94;;;15.75;100.00
1371;BME280;14306;49.942;11.570;2023-09-12T05:08:41;97230.50;;;15.92;100.00
1371;BME280;14306;49.942;11.570;2023-09-12T05:11:10;97228.78;;;16.00;100.00
1371;BME280;14306;49.942;11.570;2023-09-12T05:13:38;97232.38;;;16.16;100.00
1371;BME280;14306;49.942;11.570;2023-09-12T05:16:06;97229.16;;;16.38;100.00
1371;BME280;14306;49.942;11.570;2023-09-12T05:18:34;97240.34;;;16.45;100.00
1371;BME280;14306;49.942;11.570;2023-09-12T05:21:02;97235.94;;;16.68;100.00
1371;BME280;14306;49.942;11.570;2023-09-12T05:23:31;97240.22;;;16.81;100.00
1371;BME280;14306;49.942;11.570;2023-09-12T05:26:01;97252.63;;;16.90;100.00
1371;BME280;14306;49.942;11.570;2023-09-12T05:28:29;97257.50;;;17.40;100.00
1371;BME280;14306;49.942;11.570;2023-09-12T05:30:57;97267.81;;;17.58;100.00
1371;BME280;14306;49.942;11.570;2023-09-12T05:33:26;97268.34;;;17.95;100.00
1371;BME280;14306;49.942;11.570;2023-09-12T05:35:55;97271.88;;;17.80;100.00
1371;BME280;14306;49.942;11.570;2023-09-12T05:38:24;97286.66;;;18.06;100.00
1371;BME280;14306;49.942;11.570;2023-09-12T05:40:51;97284.25;;;18.05;100.00
1371;BME280;14306;49.942;11.570;2023-09-12T05:43:21;97286.03;;;18.13;100.00
1371;BME280;14306;49.942;11.570;2023-09-12T05:45:49;97296.44;;;18.23;100.00
1371;BME280;14306;49.942;11.570;2023-09-12T05:48:18;97290.53;;;18.05;100.00
1371;BME280;14306;49.942;11.570;2023-09-12T05:50:46;97286.38;;;18.61;100.00
1371;BME280;14306;49.942;11.570;2023-09-12T05:53:14;97290.19;;;18.57;100.00
1371;BME280;14306;49.942;11.570;2023-09-12T05:55:43;97301.66;;;18.78;100.00
1371;BME280;14306;49.942;11.570;2023-09-12T05:58:11;97307.19;;;19.54;100.00
1371;BME280;14306;49.942;11.570;2023-09-12T06:00:41;97309.81;;;20.11;100.00
1371;BME280;14306;49.942;11.570;2023-09-12T06:03:09;97313.25;;;20.31;100.00
1371;BME280;14306;49.942;11.570;2023-09-12T06:05:37;97310.78;;;20.22;100.00
1371;BME280;14306;49.942;11.570;2023-09-12T06:08:05;97322.47;;;20.68;100.00
1371;BME280;14306;49.942;11.570;2023-09-12T06:10:33;97326.66;;;21.10;100.00
1371;BME280;14306;49.942;11.570;2023-09-12T06:13:01;97326.63;;;21.73;100.00
1371;BME280;14306;49.942;11.570;2023-09-12T06:17:59;97332.34;;;21.90;100.00
1371;BME280;14306;49.942;11.570;2023-09-12T06:20:27;97336.94;;;22.16;100.00
1371;BME280;14306;49.942;11.570;2023-09-12T06:22:56;97326.50;;;21.99;100.00
1371;BME280;14306;49.942;11.570;2023-09-12T06:25:25;97326.56;;;23.11;100.00
1371;BME280;14306;49.942;11.570;2023-09-12T06:27:55;97336.88;;;24.45;100.00
1371;BME280;14306;49.942;11.570;2023-09-12T06:30:23;97352.63;;;25.28;100.00
1371;BME280;14306;49.942;11.570;2023-09-12T06:32:51;97351.38;;;26.26;100.00
1371;BME280;14306;49.942;11.570;2023-09-12T06:35:20;97349.47;;;26.13;100.00
1371;BME280;14306;49.942;11.570;2023-09-12T06:37:49;97347.03;;;27.54;100.00
1371;BME280;14306;49.942;11.570;2023-09-12T06:40:17;97350.66;;;27.81;99.43
1371;BME280;14306;49.942;11.570;2023-09-12T06:42:45;97351.81;;;28.13;86.85
1371;BME280;14306;49.942;11.570;2023-09-12T06:45:13;97355.03;;;28.65;94.65
1371;BME280;14306;49.942;11.570;2023-09-12T06:47:41;97361.25;;;29.42;84.77
1371;BME280;14306;49.942;11.570;2023-09-12T06:50:09;97383.31;;;30.34;70.11
1371;BME280;14306;49.942;11.570;2023-09-12T06:52:46;97358.13;;;29.16;74.40
1371;BME280;14306;49.942;11.570;2023-09-12T06:55:14;97367.44;;;29.53;74.12
1371;BME280;14306;49.942;11.570;2023-09-12T06:57:42;97365.19;;;29.44;76.02
1371;BME280;14306;49.942;11.570;2023-09-12T07:00:13;97410.59;;;31.58;64.20
1371;BME280;14306;49.942;11.570;2023-09-12T07:02:41;97418.41;;;32.07;57.61
1371;BME280;14306;49.942;11.570;2023-09-12T07:05:10;97385.69;;;30.67;64.70
1371;BME280;14306;49.942;11.570;2023-09-12T07:07:38;97371.88;;;29.89;68.44
1371;BME280;14306;49.942;11.570;2023-09-12T07:10:08;97369.94;;;30.06;68.42
1371;BME280;14306;49.942;11.570;2023-09-12T07:12:50;97391.81;;;31.10;66.33
1371;BME280;14306;49.942;11.570;2023-09-12T07:15:19;97424.38;;;32.76;56.54
1371;BME280;14306;49.942;11.570;2023-09-12T07:17:48;97440.00;;;33.82;50.58
1371;BME280;14306;49.942;11.570;2023-09-12T07:20:16;97451.56;;;34.70;49.40
1371;BME280;14306;49.942;11.570;2023-09-12T07:22:44;97428.75;;;33.95;49.30
1371;BME280;14306;49.942;11.570;2023-09-12T07:25:14;97438.41;;;33.94;50.28
1371;BME280;14306;49.942;11.570;2023-09-12T07:27:43;97468.00;;;35.02;47.03
1371;BME280;14306;49.942;11.570;2023-09-12T07:30:11;97491.44;;;36.33;43.18
1371;BME280;14306;49.942;11.570;2023-09-12T07:32:40;97421.75;;;33.65;47.73
1371;BME280;14306;49.942;11.570;2023-09-12T07:35:08;97465.63;;;35.40;46.17
1371;BME280;14306;49.942;11.570;2023-09-12T07:37:36;97433.75;;;34.00;51.11
1371;BME280;14306;49.942;11.570;2023-09-12T07:40:06;97442.53;;;34.23;51.14
1371;BME280;14306;49.942;11.570;2023-09-12T07:42:38;97492.53;;;36.44;42.48
1371;BME280;14306;49.942;11.570;2023-09-12T07:45:07;97483.00;;;36.24;43.85
1371;BME280;14306;49.942;11.570;2023-09-12T07:47:35;97507.41;;;37.13;42.48
1371;BME280;14306;49.942;11.570;2023-09-12T07:50:04;97480.47;;;36.35;44.69
1371;BME280;14306;49.942;11.570;2023-09-12T07:52:33;97469.50;;;35.92;44.75
1371;BME280;14306;49.942;11.570;2023-09-12T07:55:02;97473.41;;;36.39;44.36
1371;BME280;14306;49.942;11.570;2023-09-12T07:57:30;97432.41;;;34.56;50.45
1371;BME280;14306;49.942;11.570;2023-09-12T08:00:00;97444.19;;;34.64;48.43
1371;BME280;14306;49.942;11.570;2023-09-12T08:02:31;97432.19;;;34.42;52.77
1371;BME280;14306;49.942;11.570;2023-09-12T08:05:00;97409.31;;;33.54;54.81
1371;BME280;14306;49.942;11.570;2023-09-12T08:07:27;97460.00;;;35.40;49.16
1371;BME280;14306;49.942;11.570;2023-09-12T08:09:57;97427.66;;;34.44;53.60
1371;BME280;14306;49.942;11.570;2023-09-12T08:12:27;97455.91;;;35.32;50.55
1371;BME280;14306;49.942;11.570;2023-09-12T08:14:55;97485.63;;;36.18;47.16
1371;BME280;14306;49.942;11.570;2023-09-12T08:17:25;97488.88;;;36.62;47.00
1371;BME280;14306;49.942;11.570;2023-09-12T08:19:55;97450.53;;;35.25;48.21
1371;BME280;14306;49.942;11.570;2023-09-12T08:22:23;97451.59;;;35.10;50.68
1371;BME280;14306;49.942;11.570;2023-09-12T08:24:51;97433.06;;;34.60;53.73
1371;BME280;14306;49.942;11.570;2023-09-12T08:27:20;97425.84;;;34.07;51.75
1371;BME280;14306;49.942;11.570;2023-09-12T08:29:49;97445.94;;;34.70;51.24
1371;BME280;14306;49.942;11.570;2023-09-12T08:32:17;97448.41;;;34.90;53.17
1371;BME280;14306;49.942;11.570;2023-09-12T08:34:47;97471.34;;;35.95;46.89
1371;BME280;14306;49.942;11.570;2023-09-12T08:37:16;97511.25;;;37.90;41.92
1371;BME280;14306;49.942;11.570;2023-09-12T08:39:44;97490.38;;;36.99;44.78
1371;BME280;14306;49.942;11.570;2023-09-12T08:42:14;97476.69;;;36.29;45.05
1371;BME280;14306;49.942;11.570;2023-09-12T08:44:43;97503.28;;;37.32;43.54
1371;BME280;14306;49.942;11.570;2023-09-12T08:47:11;97509.34;;;37.96;41.67
1371;BME280;14306;49.942;11.570;2023-09-12T08:49:40;97504.41;;;37.82;41.55
1371;BME280;14306;49.942;11.570;2023-09-12T08:52:10;97525.00;;;38.44;40.17
1371;BME280;14306;49.942;11.570;2023-09-12T08:54:38;97503.56;;;37.90;41.14
1371;BME280;14306;49.942;11.570;2023-09-12T08:57:10;97490.47;;;37.13;42.37
1371;BME280;14306;49.942;11.570;2023-09-12T08:59:40;97434.03;;;34.97;50.45
1371;BME280;14306;49.942;11.570;2023-09-12T09:02:10;97516.78;;;38.31;40.50
1371;BME280;14306;49.942;11.570;2023-09-12T09:04:39;97471.34;;;36.40;44.16
1371;BME280;14306;49.942;11.570;2023-09-12T09:07:11;97445.59;;;35.38;45.67
1371;BME280;14306;49.942;11.570;2023-09-12T09:09:40;97476.84;;;37.03;42.28
1371;BME280;14306;49.942;11.570;2023-09-12T09:12:09;97466.09;;;36.65;41.30
1371;BME280;14306;49.942;11.570;2023-09-12T09:14:37;97463.03;;;36.18;43.57
1371;BME280;14306;49.942;11.570;2023-09-12T09:17:05;97469.66;;;36.93;42.23
1371;BME280;14306;49.942;11.570;2023-09-12T09:19:44;97454.25;;;36.34;42.83
1371;BME280;14306;49.942;11.570;2023-09-12T09:22:14;97533.25;;;39.44;36.62
1371;BME280;14306;49.942;11.570;2023-09-12T09:24:42;97468.91;;;37.25;40.66
1371;BME280;14306;49.942;11.570;2023-09-12T09:27:32;97486.94;;;37.83;41.86
1371;BME280;14306;49.942;11.570;2023-09-12T09:30:01;97474.28;;;37.46;42.83
1371;BME280;14306;49.942;11.570;2023-09-12T09:32:30;97481.84;;;37.73;42.44
1371;BME280;14306;49.942;11.570;2023-09-12T09:34:58;97493.13;;;38.20;41.28
1371;BME280;14306;49.942;11.570;2023-09-12T09:37:28;97461.41;;;37.22;43.38
1371;BME280;14306;49.942;11.570;2023-09-12T09:39:56;97477.53;;;38.01;42.56
1371;BME280;14306;49.942;11.570;2023-09-12T09:42:28;97441.94;;;36.64;44.51
1371;BME280;14306;49.942;11.570;2023-09-12T09:44:57;97487.41;;;38.43;41.53
1371;BME280;14306;49.942;11.570;2023-09-12T09:47:25;97503.75;;;39.07;39.53
1371;BME280;14306;49.942;11.570;2023-09-12T09:49:53;97493.59;;;38.71;39.91
1371;BME280;14306;49.942;11.570;2023-09-12T09:52:27;97454.84;;;37.07;43.30
1371;BME280;14306;49.942;11.570;2023-09-12T09:54:56;97489.25;;;38.46;40.71
1371;BME280;14306;49.942;11.570;2023-09-12T09:57:25;97452.97;;;37.36;42.59
1371;BME280;14306;49.942;11.570;2023-09-12T09:59:54;97461.03;;;37.61;41.83
1371;BME280;14306;49.942;11.570;2023-09-12T10:02:25;97436.94;;;36.77;45.75
1371;BME280;14306;49.942;11.570;2023-09-12T10:04:53;97451.28;;;37.53;43.81
1371;BME280;14306;49.942;11.570;2023-09-12T10:07:32;97428.47;;;36.59;45.01
1371;BME280;14306;49.942;11.570;2023-09-12T10:10:02;97437.91;;;36.98;45.09
1371;BME280;14306;49.942;11.570;2023-09-12T10:12:31;97438.34;;;37.38;42.18
1371;BME280;14306;49.942;11.570;2023-09-12T10:15:03;97419.25;;;36.50;44.10
1371;BME280;14306;49.942;11.570;2023-09-12T10:17:36;97416.53;;;36.64;45.16
1371;BME280;14306;49.942;11.570;2023-09-12T10:20:09;97433.84;;;36.99;43.41
1371;BME280;14306;49.942;11.570;2023-09-12T10:22:49;97403.50;;;35.98;47.52
1371;BME280;14306;49.942;11.570;2023-09-12T10:25:20;97421.97;;;36.35;46.88
1371;BME280;14306;49.942;11.570;2023-09-12T10:27:49;97401.78;;;35.92;48.77
1371;BME280;14306;49.942;11.570;2023-09-12T10:30:18;97421.75;;;36.48;45.90
1371;BME280;14306;49.942;11.570;2023-09-12T10:32:46;97386.69;;;35.40;50.31
1371;BME280;14306;49.942;11.570;2023-09-12T10:35:16;97390.00;;;35.57;50.04
1371;BME280;14306;49.942;11.570;2023-09-12T10:37:48;97390.78;;;35.67;49.17
1371;BME280;14306;49.942;11.570;2023-09-12T10:40:17;97356.94;;;34.33;55.83
1371;BME280;14306;49.942;11.570;2023-09-12T10:42:48;97385.94;;;35.40;50.87
1371;BME280;14306;49.942;11.570;2023-09-12T10:45:18;97379.50;;;35.39;51.50
1371;BME280;14306;49.942;11.570;2023-09-12T10:47:48;97342.28;;;34.17;54.43
1371;BME280;14306;49.942;11.570;2023-09-12T10:50:16;97369.25;;;35.06;51.33
1371;BME280;14306;49.942;11.570;2023-09-12T10:52:47;97348.38;;;34.15;54.80
1371;BME280;14306;49.942;11.570;2023-09-12T10:55:15;97358.22;;;34.81;53.47
1371;BME280;14306;49.942;11.570;2023-09-12T10:58:01;97372.72;;;35.19;50.50
1371;BME280;14306;49.942;11.570;2023-09-12T11:00:30;97356.97;;;34.82;52.46
1371;BME280;14306;49.942;11.570;2023-09-12T11:03:35;97373.28;;;35.81;48.04
1371;BME280;14306;49.942;11.570;2023-09-12T11:06:04;97336.03;;;34.43;51.31
1371;BME280;14306;49.942;11.570;2023-09-12T11:08:40;97332.44;;;34.21;52.12
1371;BME280;14306;49.942;11.570;2023-09-12T11:11:18;97334.34;;;34.24;54.01
1371;BME280;14306;49.942;11.570;2023-09-12T11:14:02;97331.19;;;34.22;54.34
1371;BME280;14306;49.942;11.570;2023-09-12T11:16:31;97335.78;;;34.59;51.79
1371;BME280;14306;49.942;11.570;2023-09-12T11:19:15;97318.63;;;34.05;53.34
1371;BME280;14306;49.942;11.570;2023-09-12T11:21:47;97320.94;;;33.98;53.62
1371;BME280;14306;49.942;11.570;2023-09-12T11:24:18;97316.63;;;34.15;53.45
1371;BME280;14306;49.942;11.570;2023-09-12T11:26:53;97303.09;;;33.70;54.64
1371;BME280;14306;49.942;11.570;2023-09-12T11:29:22;97299.94;;;33.68;55.25
1371;BME280;14306;49.942;11.570;2023-09-12T11:31:56;97318.44;;;34.00;55.20
1371;BME280;14306;49.942;11.570;2023-09-12T11:34:26;97279.38;;;32.69;58.97
1371;BME280;14306;49.942;11.570;2023-09-12T11:36:56;97282.00;;;32.26;62.49
1371;BME280;14306;49.942;11.570;2023-09-12T11:39:29;97292.19;;;32.83;59.84
1371;BME280;14306;49.942;11.570;2023-09-12T11:41:58;97296.97;;;33.29;58.30
1371;BME280;14306;49.942;11.570;2023-09-12T11:44:28;97298.91;;;33.19;60.30
1371;BME280;14306;49.942;11.570;2023-09-12T11:46:59;97306.88;;;33.33;58.36
1371;BME280;14306;49.942;11.570;2023-09-12T11:49:37;97306.09;;;33.33;57.79
1371;BME280;14306;49.942;11.570;2023-09-12T11:52:08;97288.25;;;32.93;59.49
1371;BME280;14306;49.942;11.570;2023-09-12T11:54:39;97302.56;;;33.29;58.62
1371;BME280;14306;49.942;11.570;2023-09-12T11:57:08;97301.78;;;33.62;57.94
1371;BME280;14306;49.942;11.570;2023-09-12T11:59:37;97290.38;;;33.23;59.30
1371;BME280;14306;49.942;11.570;2023-09-12T12:02:07;97288.97;;;33.06;60.04
1371;BME280;14306;49.942;11.570;2023-09-12T12:04:36;97277.09;;;32.55;61.93
1371;BME280;14306;49.942;11.570;2023-09-12T12:07:05;97296.06;;;32.98;61.57
1371;BME280;14306;49.942;11.570;2023-09-12T12:09:34;97292.75;;;32.90;61.73
1371;BME280;14306;49.942;11.570;2023-09-12T12:12:11;97276.19;;;32.58;62.85
1371;BME280;14306;49.942;11.570;2023-09-12T12:14:40;97276.03;;;32.74;63.38
1371;BME280;14306;49.942;11.570;2023-09-12T12:17:09;97285.13;;;32.91;61.86
1371;BME280;14306;49.942;11.570;2023-09-12T12:19:37;97275.50;;;32.54;62.57
1371;BME280;14306;49.942;11.570;2023-09-12T12:22:06;97262.06;;;32.24;64.48
1371;BME280;14306;49.942;11.570;2023-09-12T12:24:38;97266.09;;;32.48;64.96
1371;BME280;14306;49.942;11.570;2023-09-12T12:27:07;97278.78;;;32.53;65.55
1371;BME280;14306;49.942;11.570;2023-09-12T12:29:39;97268.75;;;32.64;63.55
1371;BME280;14306;49.942;11.570;2023-09-12T12:32:09;97281.94;;;33.01;60.62
1371;BME280;14306;49.942;11.570;2023-09-12T12:34:38;97274.72;;;33.00;61.38
1371;BME280;14306;49.942;11.570;2023-09-12T12:37:28;97266.06;;;32.61;63.75
1371;BME280;14306;49.942;11.570;2023-09-12T12:40:00;97279.44;;;33.03;59.75
1371;BME280;14306;49.942;11.570;2023-09-12T12:42:33;97280.22;;;33.04;63.40
1371;BME280;14306;49.942;11.570;2023-09-12T12:45:20;97274.00;;;32.75;63.97
1371;BME280;14306;49.942;11.570;2023-09-12T12:47:51;97271.19;;;32.87;62.24
1371;BME280;14306;49.942;11.570;2023-09-12T12:50:20;97272.78;;;32.63;63.84
1371;BME280;14306;49.942;11.570;2023-09-12T12:52:48;97260.69;;;32.54;64.19
1371;BME280;14306;49.942;11.570;2023-09-12T12:55:17;97269.38;;;32.93;62.52
1371;BME280;14306;49.942;11.570;2023-09-12T12:57:48;97262.25;;;33.01;60.52
1371;BME280;14306;49.942;11.570;2023-09-12T13:00:18;97259.56;;;32.98;61.06
1371;BME280;14306;49.942;11.570;2023-09-12T13:02:48;97243.84;;;32.66;61.91
1371;BME280;14306;49.942;11.570;2023-09-12T13:05:20;97251.81;;;33.02;60.64
1371;BME280;14306;49.942;11.570;2023-09-12T13:07:49;97254.25;;;33.12;59.96
1371;BME280;14306;49.942;11.570;2023-09-12T13:10:18;97255.84;;;33.01;60.27
1371;BME280;14306;49.942;11.570;2023-09-12T13:12:46;97248.16;;;32.80;60.49